createdAt,value
2022-09-18T00:00:26.481Z,475.00
2022-09-18T00:00:56.531Z,475.00
2022-09-18T00:01:26.763Z,476.00
2022-09-18T00:01:56.631Z,476.00
2022-09-18T00:02:26.558Z,476.00
2022-09-18T00:02:56.593Z,477.00
2022-09-18T00:03:26.596Z,477.00
2022-09-18T00:03:56.592Z,479.00
2022-09-18T00:04:26.706Z,478.00
2022-09-18T00:04:56.703Z,479.00
2022-09-18T00:05:26.853Z,477.00
2022-09-18T00:05:56.834Z,475.00
2022-09-18T00:06:26.952Z,474.00
2022-09-18T00:06:56.951Z,475.00
2022-09-18T00:07:27.069Z,475.00
2022-09-18T00:07:57.186Z,475.00
2022-09-18T00:08:27.181Z,475.00
2022-09-18T00:08:57.302Z,475.00
2022-09-18T00:09:27.296Z,473.00
2022-09-18T00:09:57.416Z,473.00
2022-09-18T00:10:27.441Z,471.00
2022-09-18T00:10:57.442Z,470.00
2022-09-18T00:11:27.440Z,469.00
2022-09-18T00:11:57.555Z,469.00
2022-09-18T00:12:27.553Z,468.00
2022-09-18T00:12:57.578Z,467.00
2022-09-18T00:13:27.601Z,469.00
2022-09-18T00:13:57.634Z,468.00
2022-09-18T00:14:27.667Z,468.00
2022-09-18T00:14:57.704Z,468.00
2022-09-18T00:15:27.819Z,468.00
2022-09-18T00:15:57.892Z,469.00
2022-09-18T00:16:28.064Z,468.00
2022-09-18T00:16:58.132Z,467.00
2022-09-18T00:17:28.008Z,466.00
2022-09-18T00:17:58.035Z,466.00
2022-09-18T00:18:28.067Z,466.00
2022-09-18T00:18:58.107Z,467.00
2022-09-18T00:19:28.191Z,467.00
2022-09-18T00:19:58.227Z,466.00
2022-09-18T00:20:28.266Z,466.00
2022-09-18T00:20:58.298Z,464.00
2022-09-18T00:21:28.324Z,463.00
2022-09-18T00:21:58.358Z,465.00
2022-09-18T00:22:28.387Z,465.00
2022-09-18T00:22:58.420Z,465.00
2022-09-18T00:23:28.452Z,465.00
2022-09-18T00:23:58.483Z,463.00
2022-09-18T00:24:28.518Z,464.00
2022-09-18T00:24:58.560Z,464.00
2022-09-18T00:25:28.588Z,464.00
2022-09-18T00:25:58.624Z,464.00
2022-09-18T00:26:28.655Z,462.00
2022-09-18T00:26:58.686Z,464.00
2022-09-18T00:27:28.717Z,463.00
2022-09-18T00:27:58.752Z,463.00
2022-09-18T00:28:28.776Z,465.00
2022-09-18T00:28:58.811Z,468.00
2022-09-18T00:29:28.850Z,468.00
2022-09-18T00:29:58.876Z,468.00
2022-09-18T00:30:28.924Z,469.00
2022-09-18T00:30:59.025Z,468.00
2022-09-18T00:31:28.985Z,467.00
2022-09-18T00:31:59.024Z,466.00
2022-09-18T00:32:29.177Z,463.00
2022-09-18T00:32:59.164Z,465.00
2022-09-18T00:33:29.194Z,465.00
2022-09-18T00:33:59.225Z,464.00
2022-09-18T00:34:29.253Z,463.00
2022-09-18T00:34:59.290Z,463.00
2022-09-18T00:35:29.341Z,464.00
2022-09-18T00:35:59.370Z,465.00
2022-09-18T00:36:29.405Z,464.00
2022-09-18T00:36:59.431Z,465.00
2022-09-18T00:37:29.457Z,463.00
2022-09-18T00:37:59.490Z,464.00
2022-09-18T00:38:29.524Z,465.00
2022-09-18T00:38:59.682Z,464.00
2022-09-18T00:39:29.642Z,465.00
2022-09-18T00:39:59.759Z,466.00
2022-09-18T00:40:29.841Z,466.00
2022-09-18T00:40:59.873Z,467.00
2022-09-18T00:41:29.908Z,466.00
2022-09-18T00:41:59.935Z,466.00
2022-09-18T00:42:29.973Z,465.00
2022-09-18T00:43:00.003Z,467.00
2022-09-18T00:43:30.038Z,466.00
2022-09-18T00:44:00.064Z,466.00
2022-09-18T00:44:30.095Z,466.00
2022-09-18T00:45:00.133Z,466.00
2022-09-18T00:45:30.165Z,466.00
2022-09-18T00:46:00.201Z,466.00
2022-09-18T00:46:30.305Z,465.00
2022-09-18T00:47:00.346Z,466.00
2022-09-18T00:47:30.385Z,466.00
2022-09-18T00:48:00.535Z,465.00
2022-09-18T00:48:30.523Z,465.00
2022-09-18T00:49:00.557Z,467.00
2022-09-18T00:49:30.586Z,466.00
2022-09-18T00:50:00.624Z,466.00
2022-09-18T00:50:30.660Z,466.00
2022-09-18T00:51:00.692Z,465.00
2022-09-18T00:51:30.722Z,466.00
2022-09-18T00:52:00.751Z,468.00
2022-09-18T00:52:30.784Z,468.00
2022-09-18T00:53:00.811Z,469.00
2022-09-18T00:53:30.849Z,469.00
2022-09-18T00:54:00.941Z,469.00
2022-09-18T00:54:30.927Z,467.00
2022-09-18T00:55:00.976Z,469.00
2022-09-18T00:55:31.004Z,470.00
2022-09-18T00:56:01.033Z,470.00
2022-09-18T00:56:31.066Z,470.00
2022-09-18T00:57:01.102Z,470.00
2022-09-18T00:57:31.130Z,470.00
2022-09-18T00:58:01.158Z,471.00
2022-09-18T00:58:31.190Z,471.00
2022-09-18T00:59:01.220Z,473.00
2022-09-18T00:59:31.249Z,473.00
2022-09-18T01:00:01.289Z,472.00
2022-09-18T01:00:31.314Z,472.00
2022-09-18T01:01:01.462Z,472.00
2022-09-18T01:01:31.495Z,470.00
2022-09-18T01:02:01.624Z,471.00
2022-09-18T01:02:31.641Z,471.00
2022-09-18T01:03:01.621Z,470.00
2022-09-18T01:03:31.854Z,469.00
2022-09-18T01:04:01.810Z,473.00
2022-09-18T01:04:31.805Z,473.00
2022-09-18T01:05:01.937Z,473.00
2022-09-18T01:05:31.923Z,471.00
2022-09-18T01:06:02.039Z,471.00
2022-09-18T01:06:32.153Z,473.00
2022-09-18T01:07:02.270Z,474.00
2022-09-18T01:07:32.270Z,475.00
2022-09-18T01:08:02.383Z,476.00
2022-09-18T01:08:32.500Z,476.00
2022-09-18T01:09:02.690Z,475.00
2022-09-18T01:09:32.658Z,475.00
2022-09-18T01:10:02.782Z,475.00
2022-09-18T01:10:32.771Z,474.00
2022-09-18T01:11:02.893Z,475.00
2022-09-18T01:11:33.018Z,476.00
2022-09-18T01:12:03.126Z,475.00
2022-09-18T01:12:33.245Z,474.00
2022-09-18T01:13:03.268Z,475.00
2022-09-18T01:13:33.301Z,475.00
2022-09-18T01:14:03.332Z,474.00
2022-09-18T01:14:33.360Z,473.00
2022-09-18T01:15:03.397Z,473.00
2022-09-18T01:15:33.425Z,473.00
2022-09-18T01:16:03.501Z,472.00
2022-09-18T01:16:33.621Z,472.00
2022-09-18T01:17:03.553Z,471.00
2022-09-18T01:17:33.585Z,470.00
2022-09-18T01:18:03.617Z,469.00
2022-09-18T01:18:33.646Z,469.00
2022-09-18T01:19:03.792Z,467.00
2022-09-18T01:19:33.775Z,468.00
2022-09-18T01:20:03.812Z,467.00
2022-09-18T01:20:33.847Z,467.00
2022-09-18T01:21:03.883Z,465.00
2022-09-18T01:21:33.907Z,466.00
2022-09-18T01:22:03.937Z,466.00
2022-09-18T01:22:33.973Z,467.00
2022-09-18T01:23:03.999Z,469.00
2022-09-18T01:23:34.038Z,469.00
2022-09-18T01:24:04.077Z,468.00
2022-09-18T01:24:34.112Z,468.00
2022-09-18T01:25:04.144Z,467.00
2022-09-18T01:25:34.173Z,468.00
2022-09-18T01:26:04.205Z,469.00
2022-09-18T01:26:34.236Z,468.00
2022-09-18T01:27:04.256Z,468.00
2022-09-18T01:27:34.285Z,468.00
2022-09-18T01:28:04.312Z,467.00
2022-09-18T01:28:34.350Z,469.00
2022-09-18T01:29:04.377Z,468.00
2022-09-18T01:29:34.413Z,469.00
2022-09-18T01:30:04.449Z,466.00
2022-09-18T01:30:34.492Z,466.00
2022-09-18T01:31:04.571Z,466.00
2022-09-18T01:31:34.687Z,465.00
2022-09-18T01:32:04.715Z,466.00
2022-09-18T01:32:34.746Z,467.00
2022-09-18T01:33:04.769Z,468.00
2022-09-18T01:33:34.804Z,468.00
2022-09-18T01:34:04.836Z,468.00
2022-09-18T01:34:34.984Z,467.00
2022-09-18T01:35:14.088Z,466.00
2022-09-18T01:35:41.482Z,467.00
2022-09-18T01:36:05.093Z,467.00
2022-09-18T01:36:35.126Z,465.00
2022-09-18T01:37:05.158Z,468.00
2022-09-18T01:37:35.195Z,469.00
2022-09-18T01:38:05.227Z,470.00
2022-09-18T01:38:35.263Z,469.00
2022-09-18T01:39:05.295Z,468.00
2022-09-18T01:39:35.336Z,468.00
2022-09-18T01:40:05.406Z,469.00
2022-09-18T01:40:35.493Z,469.00
2022-09-18T01:41:05.501Z,471.00
2022-09-18T01:41:35.534Z,471.00
2022-09-18T01:42:05.564Z,471.00
2022-09-18T01:42:35.602Z,470.00
2022-09-18T01:43:05.631Z,472.00
2022-09-18T01:43:35.664Z,474.00
2022-09-18T01:44:05.697Z,474.00
2022-09-18T01:44:35.730Z,473.00
2022-09-18T01:45:05.764Z,474.00
2022-09-18T01:45:35.800Z,471.00
2022-09-18T01:46:05.890Z,470.00
2022-09-18T01:46:36.053Z,468.00
2022-09-18T01:47:05.961Z,468.00
2022-09-18T01:47:35.993Z,469.00
2022-09-18T01:48:06.024Z,471.00
2022-09-18T01:48:36.060Z,471.00
2022-09-18T01:49:06.090Z,472.00
2022-09-18T01:49:36.123Z,471.00
2022-09-18T01:50:06.277Z,470.00
2022-09-18T01:50:36.261Z,470.00
2022-09-18T01:51:06.295Z,468.00
2022-09-18T01:51:36.330Z,469.00
2022-09-18T01:52:06.362Z,467.00
2022-09-18T01:52:36.397Z,465.00
2022-09-18T01:53:06.428Z,465.00
2022-09-18T01:53:36.470Z,466.00
2022-09-18T01:54:06.493Z,467.00
2022-09-18T01:54:36.526Z,468.00
2022-09-18T01:55:06.561Z,465.00
2022-09-18T01:55:36.600Z,466.00
2022-09-18T01:56:06.624Z,465.00
2022-09-18T01:56:36.655Z,466.00
2022-09-18T01:57:06.686Z,466.00
2022-09-18T01:57:36.723Z,467.00
2022-09-18T01:58:06.753Z,467.00
2022-09-18T01:58:36.787Z,468.00
2022-09-18T01:59:06.819Z,468.00
2022-09-18T01:59:36.854Z,470.00
2022-09-18T02:00:06.902Z,469.00
2022-09-18T02:00:36.936Z,469.00
2022-09-18T02:01:06.972Z,470.00
2022-09-18T02:01:37.094Z,469.00
2022-09-18T02:02:07.218Z,470.00
2022-09-18T02:02:37.287Z,470.00
2022-09-18T02:03:07.214Z,471.00
2022-09-18T02:03:37.209Z,470.00
2022-09-18T02:04:07.203Z,472.00
2022-09-18T02:04:37.329Z,473.00
2022-09-18T02:05:07.322Z,474.00
2022-09-18T02:05:37.439Z,475.00
2022-09-18T02:06:07.395Z,475.00
2022-09-18T02:06:37.390Z,476.00
2022-09-18T02:07:07.503Z,477.00
2022-09-18T02:07:37.624Z,475.00
2022-09-18T02:08:07.739Z,476.00
2022-09-18T02:08:37.860Z,476.00
2022-09-18T02:09:07.855Z,475.00
2022-09-18T02:09:37.975Z,476.00
2022-09-18T02:10:07.980Z,478.00
2022-09-18T02:10:37.982Z,477.00
2022-09-18T02:11:07.971Z,477.00
2022-09-18T02:11:37.969Z,477.00
2022-09-18T02:12:07.966Z,478.00
2022-09-18T02:12:37.964Z,479.00
2022-09-18T02:13:07.997Z,477.00
2022-09-18T02:13:38.034Z,475.00
2022-09-18T02:14:08.062Z,475.00
2022-09-18T02:14:38.095Z,475.00
2022-09-18T02:15:08.166Z,475.00
2022-09-18T02:15:38.200Z,474.00
2022-09-18T02:16:08.265Z,473.00
2022-09-18T02:16:38.281Z,473.00
2022-09-18T02:17:08.313Z,473.00
2022-09-18T02:17:38.346Z,473.00
2022-09-18T02:18:08.382Z,473.00
2022-09-18T02:18:38.410Z,472.00
2022-09-18T02:19:08.441Z,473.00
2022-09-18T02:19:38.483Z,472.00
2022-09-18T02:20:08.526Z,472.00
2022-09-18T02:20:38.556Z,475.00
2022-09-18T02:21:08.711Z,476.00
2022-09-18T02:21:38.704Z,476.00
2022-09-18T02:22:08.735Z,477.00
2022-09-18T02:22:38.772Z,476.00
2022-09-18T02:23:08.809Z,476.00
2022-09-18T02:23:38.845Z,476.00
2022-09-18T02:24:08.874Z,476.00
2022-09-18T02:24:38.925Z,477.00
2022-09-18T02:25:08.958Z,476.00
2022-09-18T02:25:38.994Z,475.00
2022-09-18T02:26:09.031Z,475.00
2022-09-18T02:26:39.058Z,476.00
2022-09-18T02:27:09.089Z,477.00
2022-09-18T02:27:39.123Z,479.00
2022-09-18T02:28:09.159Z,479.00
2022-09-18T02:28:39.197Z,478.00
2022-09-18T02:29:09.228Z,478.00
2022-09-18T02:29:39.274Z,478.00
2022-09-18T02:30:09.312Z,477.00
2022-09-18T02:30:39.341Z,477.00
2022-09-18T02:31:09.474Z,476.00
2022-09-18T02:31:39.574Z,477.00
2022-09-18T02:32:09.595Z,477.00
2022-09-18T02:32:39.620Z,475.00
2022-09-18T02:33:09.656Z,475.00
2022-09-18T02:33:39.690Z,475.00
2022-09-18T02:34:09.716Z,476.00
2022-09-18T02:34:39.762Z,477.00
2022-09-18T02:35:09.795Z,478.00
2022-09-18T02:35:39.830Z,477.00
2022-09-18T02:36:09.858Z,476.00
2022-09-18T02:36:40.016Z,476.00
2022-09-18T02:37:10.005Z,475.00
2022-09-18T02:37:40.033Z,473.00
2022-09-18T02:38:10.067Z,472.00
2022-09-18T02:38:40.099Z,470.00
2022-09-18T02:39:10.134Z,470.00
2022-09-18T02:39:40.192Z,470.00
2022-09-18T02:40:10.382Z,471.00
2022-09-18T02:40:40.318Z,472.00
2022-09-18T02:41:10.353Z,471.00
2022-09-18T02:41:40.394Z,473.00
2022-09-18T02:42:10.421Z,476.00
2022-09-18T02:42:40.457Z,478.00
2022-09-18T02:43:10.491Z,479.00
2022-09-18T02:43:40.521Z,477.00
2022-09-18T02:44:10.557Z,476.00
2022-09-18T02:44:40.603Z,475.00
2022-09-18T02:45:10.632Z,475.00
2022-09-18T02:45:40.668Z,475.00
2022-09-18T02:46:10.733Z,475.00
2022-09-18T02:46:40.833Z,474.00
2022-09-18T02:47:10.859Z,473.00
2022-09-18T02:47:40.892Z,474.00
2022-09-18T02:48:10.919Z,474.00
2022-09-18T02:48:40.955Z,474.00
2022-09-18T02:49:10.987Z,474.00
2022-09-18T02:49:41.023Z,471.00
2022-09-18T02:50:11.055Z,472.00
2022-09-18T02:50:41.089Z,473.00
2022-09-18T02:51:11.116Z,474.00
2022-09-18T02:51:41.152Z,474.00
2022-09-18T02:52:11.302Z,474.00
2022-09-18T02:52:41.294Z,476.00
2022-09-18T02:53:11.322Z,476.00
2022-09-18T02:53:41.357Z,475.00
2022-09-18T02:54:11.382Z,474.00
2022-09-18T02:54:41.428Z,473.00
2022-09-18T02:55:11.459Z,473.00
2022-09-18T02:55:41.489Z,473.00
2022-09-18T02:56:11.526Z,472.00
2022-09-18T02:56:41.558Z,470.00
2022-09-18T02:57:11.590Z,470.00
2022-09-18T02:57:41.621Z,469.00
2022-09-18T02:58:11.652Z,469.00
2022-09-18T02:58:41.679Z,470.00
2022-09-18T02:59:11.706Z,472.00
2022-09-18T02:59:41.750Z,471.00
2022-09-18T03:00:11.781Z,470.00
2022-09-18T03:00:41.836Z,470.00
2022-09-18T03:01:11.877Z,470.00
2022-09-18T03:01:42.023Z,470.00
2022-09-18T03:02:12.050Z,469.00
2022-09-18T03:02:42.093Z,470.00
2022-09-18T03:03:12.067Z,471.00
2022-09-18T03:03:42.077Z,469.00
2022-09-18T03:04:12.074Z,470.00
2022-09-18T03:04:42.194Z,469.00
2022-09-18T03:05:12.189Z,468.00
2022-09-18T03:05:42.184Z,469.00
2022-09-18T03:06:12.298Z,469.00
2022-09-18T03:06:42.417Z,469.00
2022-09-18T03:07:12.415Z,468.00
2022-09-18T03:07:42.649Z,467.00
2022-09-18T03:08:12.600Z,468.00
2022-09-18T03:08:42.720Z,468.00
2022-09-18T03:09:12.838Z,467.00
2022-09-18T03:09:42.837Z,467.00
2022-09-18T03:10:12.828Z,469.00
2022-09-18T03:10:42.947Z,471.00
2022-09-18T03:11:12.938Z,470.00
2022-09-18T03:11:43.058Z,470.00
2022-09-18T03:12:13.172Z,469.00
2022-09-18T03:12:43.187Z,468.00
2022-09-18T03:13:13.219Z,470.00
2022-09-18T03:13:43.252Z,471.00
2022-09-18T03:14:13.284Z,469.00
2022-09-18T03:14:43.320Z,469.00
2022-09-18T03:15:13.347Z,469.00
2022-09-18T03:15:43.394Z,467.00
2022-09-18T03:16:13.453Z,466.00
2022-09-18T03:16:43.515Z,468.00
2022-09-18T03:17:13.550Z,470.00
2022-09-18T03:17:43.585Z,470.00
2022-09-18T03:18:13.617Z,471.00
2022-09-18T03:18:43.654Z,469.00
2022-09-18T03:19:13.690Z,468.00
2022-09-18T03:19:43.724Z,468.00
2022-09-18T03:20:13.758Z,466.00
2022-09-18T03:20:43.790Z,467.00
2022-09-18T03:21:13.820Z,466.00
2022-09-18T03:21:43.853Z,466.00
2022-09-18T03:22:13.888Z,468.00
2022-09-18T03:22:43.919Z,469.00
2022-09-18T03:23:14.071Z,468.00
2022-09-18T03:23:45.721Z,470.00
2022-09-18T03:24:14.071Z,469.00
2022-09-18T03:24:44.110Z,467.00
2022-09-18T03:25:14.142Z,468.00
2022-09-18T03:25:44.170Z,469.00
2022-09-18T03:26:14.219Z,468.00
2022-09-18T03:26:44.266Z,471.00
2022-09-18T03:27:14.302Z,471.00
2022-09-18T03:27:44.330Z,471.00
2022-09-18T03:28:14.363Z,470.00
2022-09-18T03:28:44.388Z,471.00
2022-09-18T03:29:14.439Z,472.00
2022-09-18T03:29:44.464Z,470.00
2022-09-18T03:30:14.493Z,469.00
2022-09-18T03:30:44.539Z,469.00
2022-09-18T03:31:14.666Z,470.00
2022-09-18T03:31:44.675Z,469.00
2022-09-18T03:32:14.623Z,468.00
2022-09-18T03:32:44.655Z,467.00
2022-09-18T03:33:14.681Z,466.00
2022-09-18T03:33:44.718Z,466.00
2022-09-18T03:34:14.752Z,466.00
2022-09-18T03:34:44.776Z,466.00
2022-09-18T03:35:14.825Z,464.00
2022-09-18T03:35:44.855Z,464.00
2022-09-18T03:36:14.885Z,463.00
2022-09-18T03:36:44.919Z,465.00
2022-09-18T03:37:14.951Z,466.00
2022-09-18T03:37:44.986Z,466.00
2022-09-18T03:38:15.009Z,465.00
2022-09-18T03:38:45.063Z,466.00
2022-09-18T03:39:16.324Z,466.00
2022-09-18T03:39:45.184Z,464.00
2022-09-18T03:40:15.267Z,465.00
2022-09-18T03:40:47.551Z,465.00
2022-09-18T03:41:15.350Z,463.00
2022-09-18T03:41:45.387Z,461.00
2022-09-18T03:42:15.417Z,461.00
2022-09-18T03:42:45.448Z,463.00
2022-09-18T03:43:15.479Z,465.00
2022-09-18T03:43:45.507Z,464.00
2022-09-18T03:44:15.549Z,465.00
2022-09-18T03:44:45.581Z,466.00
2022-09-18T03:45:15.610Z,466.00
2022-09-18T03:45:45.645Z,466.00
2022-09-18T03:46:15.739Z,465.00
2022-09-18T03:46:45.862Z,466.00
2022-09-18T03:47:15.828Z,465.00
2022-09-18T03:47:45.865Z,465.00
2022-09-18T03:48:15.894Z,466.00
2022-09-18T03:48:45.945Z,465.00
2022-09-18T03:49:15.971Z,467.00
2022-09-18T03:49:46.030Z,467.00
2022-09-18T03:50:16.064Z,467.00
2022-09-18T03:50:46.105Z,468.00
2022-09-18T03:51:16.142Z,468.00
2022-09-18T03:51:46.190Z,467.00
2022-09-18T03:52:16.233Z,468.00
2022-09-18T03:52:50.974Z,468.00
2022-09-18T03:53:16.323Z,467.00
2022-09-18T03:53:46.350Z,467.00
2022-09-18T03:54:16.503Z,467.00
2022-09-18T03:54:46.520Z,468.00
2022-09-18T03:55:16.565Z,466.00
2022-09-18T03:55:46.597Z,466.00
2022-09-18T03:56:16.629Z,466.00
2022-09-18T03:56:46.658Z,467.00
2022-09-18T03:57:16.692Z,464.00
2022-09-18T03:57:46.724Z,463.00
2022-09-18T03:58:16.764Z,465.00
2022-09-18T03:58:46.793Z,466.00
2022-09-18T03:59:16.833Z,466.00
2022-09-18T03:59:46.882Z,464.00
2022-09-18T04:00:16.911Z,465.00
2022-09-18T04:00:46.949Z,465.00
2022-09-18T04:01:16.975Z,467.00
2022-09-18T04:01:47.087Z,465.00
2022-09-18T04:02:17.159Z,466.00
2022-09-18T04:02:47.195Z,466.00
2022-09-18T04:03:17.275Z,467.00
2022-09-18T04:03:47.259Z,467.00
2022-09-18T04:04:17.265Z,467.00
2022-09-18T04:04:47.264Z,466.00
2022-09-18T04:05:17.264Z,465.00
2022-09-18T04:05:47.263Z,463.00
2022-09-18T04:06:17.376Z,463.00
2022-09-18T04:06:47.379Z,461.00
2022-09-18T04:07:17.501Z,462.00
2022-09-18T04:07:47.495Z,462.00
2022-09-18T04:08:17.497Z,459.00
2022-09-18T04:08:47.490Z,461.00
2022-09-18T04:09:17.490Z,462.00
2022-09-18T04:09:47.599Z,462.00
2022-09-18T04:10:17.552Z,463.00
2022-09-18T04:10:47.669Z,462.00
2022-09-18T04:11:17.786Z,463.00
2022-09-18T04:11:47.779Z,463.00
2022-09-18T04:12:17.774Z,465.00
2022-09-18T04:12:47.796Z,466.00
2022-09-18T04:13:17.826Z,465.00
2022-09-18T04:13:47.858Z,466.00
2022-09-18T04:14:17.897Z,467.00
2022-09-18T04:14:47.953Z,470.00
2022-09-18T04:15:17.966Z,469.00
2022-09-18T04:15:48.052Z,470.00
2022-09-18T04:16:18.262Z,468.00
2022-09-18T04:16:48.096Z,466.00
2022-09-18T04:17:18.131Z,465.00
2022-09-18T04:17:48.162Z,464.00
2022-09-18T04:18:18.204Z,464.00
2022-09-18T04:18:48.315Z,465.00
2022-09-18T04:19:18.375Z,464.00
2022-09-18T04:19:53.273Z,462.00
2022-09-18T04:20:18.460Z,462.00
2022-09-18T04:20:48.492Z,464.00
2022-09-18T04:21:18.529Z,465.00
2022-09-18T04:21:48.563Z,466.00
2022-09-18T04:22:18.590Z,466.00
2022-09-18T04:22:48.627Z,466.00
2022-09-18T04:23:18.659Z,466.00
2022-09-18T04:23:48.687Z,466.00
2022-09-18T04:24:18.734Z,467.00
2022-09-18T04:24:48.768Z,468.00
2022-09-18T04:25:18.935Z,468.00
2022-09-18T04:25:48.799Z,467.00
2022-09-18T04:26:18.834Z,468.00
2022-09-18T04:26:48.867Z,467.00
2022-09-18T04:27:18.905Z,469.00
2022-09-18T04:27:48.932Z,469.00
2022-09-18T04:28:18.961Z,469.00
2022-09-18T04:28:48.995Z,469.00
2022-09-18T04:29:19.031Z,468.00
2022-09-18T04:29:49.067Z,467.00
2022-09-18T04:30:19.113Z,467.00
2022-09-18T04:30:49.146Z,466.00
2022-09-18T04:31:19.202Z,468.00
2022-09-18T04:31:49.302Z,467.00
2022-09-18T04:32:19.346Z,468.00
2022-09-18T04:32:49.373Z,469.00
2022-09-18T04:33:19.412Z,470.00
2022-09-18T04:33:49.447Z,469.00
2022-09-18T04:34:19.476Z,468.00
2022-09-18T04:34:49.526Z,467.00
2022-09-18T04:35:19.562Z,467.00
2022-09-18T04:35:49.588Z,466.00
2022-09-18T04:36:19.624Z,465.00
2022-09-18T04:36:49.653Z,464.00
2022-09-18T04:37:19.688Z,463.00
2022-09-18T04:37:49.719Z,463.00
2022-09-18T04:38:19.750Z,466.00
2022-09-18T04:38:49.782Z,467.00
2022-09-18T04:39:19.821Z,466.00
2022-09-18T04:39:49.891Z,465.00
2022-09-18T04:40:20.007Z,464.00
2022-09-18T04:40:50.039Z,463.00
2022-09-18T04:41:20.030Z,462.00
2022-09-18T04:41:50.061Z,461.00
2022-09-18T04:42:20.096Z,462.00
2022-09-18T04:42:50.124Z,462.00
2022-09-18T04:43:20.160Z,464.00
2022-09-18T04:43:50.199Z,464.00
2022-09-18T04:44:20.242Z,463.00
2022-09-18T04:44:50.310Z,464.00
2022-09-18T04:45:20.352Z,464.00
2022-09-18T04:45:50.375Z,464.00
2022-09-18T04:46:20.465Z,464.00
2022-09-18T04:46:50.623Z,464.00
2022-09-18T04:47:20.512Z,464.00
2022-09-18T04:47:50.545Z,463.00
2022-09-18T04:48:20.582Z,463.00
2022-09-18T04:48:50.677Z,462.00
2022-09-18T04:49:20.622Z,463.00
2022-09-18T04:49:50.683Z,462.00
2022-09-18T04:50:20.720Z,463.00
2022-09-18T04:50:50.755Z,463.00
2022-09-18T04:51:20.794Z,465.00
2022-09-18T04:51:50.824Z,465.00
2022-09-18T04:52:20.857Z,465.00
2022-09-18T04:52:50.891Z,465.00
2022-09-18T04:53:20.920Z,466.00
2022-09-18T04:53:50.953Z,465.00
2022-09-18T04:54:20.992Z,466.00
2022-09-18T04:54:51.046Z,466.00
2022-09-18T04:55:21.082Z,465.00
2022-09-18T04:55:51.115Z,463.00
2022-09-18T04:56:21.265Z,464.00
2022-09-18T04:56:51.257Z,464.00
2022-09-18T04:57:21.295Z,463.00
2022-09-18T04:57:54.514Z,463.00
2022-09-18T04:58:21.333Z,463.00
2022-09-18T04:58:51.367Z,462.00
2022-09-18T04:59:21.404Z,462.00
2022-09-18T04:59:51.469Z,464.00
2022-09-18T05:00:21.506Z,464.00
2022-09-18T05:00:51.575Z,464.00
2022-09-18T05:01:21.694Z,465.00
2022-09-18T05:01:51.746Z,466.00
2022-09-18T05:02:21.910Z,467.00
2022-09-18T05:02:51.913Z,469.00
2022-09-18T05:03:21.910Z,469.00
2022-09-18T05:03:51.903Z,469.00
2022-09-18T05:04:22.032Z,468.00
2022-09-18T05:04:52.027Z,468.00
2022-09-18T05:05:22.031Z,467.00
2022-09-18T05:05:52.026Z,466.00
2022-09-18T05:06:22.019Z,465.00
2022-09-18T05:06:52.016Z,464.00
2022-09-18T05:07:22.136Z,464.00
2022-09-18T05:07:52.131Z,463.00
2022-09-18T05:08:22.128Z,462.00
2022-09-18T05:08:52.244Z,462.00
2022-09-18T05:09:22.265Z,462.00
2022-09-18T05:09:52.263Z,462.00
2022-09-18T05:10:22.379Z,463.00
2022-09-18T05:10:52.500Z,462.00
2022-09-18T05:11:22.505Z,464.00
2022-09-18T05:11:52.620Z,464.00
2022-09-18T05:12:22.571Z,464.00
2022-09-18T05:12:52.597Z,464.00
2022-09-18T05:13:22.626Z,465.00
2022-09-18T05:13:52.656Z,466.00
2022-09-18T05:14:22.705Z,468.00
2022-09-18T05:14:52.733Z,466.00
2022-09-18T05:15:22.764Z,465.00
2022-09-18T05:15:52.856Z,464.00
2022-09-18T05:16:22.926Z,463.00
2022-09-18T05:16:52.954Z,464.00
2022-09-18T05:17:22.990Z,463.00
2022-09-18T05:17:53.026Z,461.00
2022-09-18T05:18:23.059Z,461.00
2022-09-18T05:18:53.087Z,462.00
2022-09-18T05:19:23.145Z,462.00
2022-09-18T05:19:53.176Z,464.00
2022-09-18T05:20:23.218Z,465.00
2022-09-18T05:20:53.257Z,462.00
2022-09-18T05:21:23.289Z,461.00
2022-09-18T05:21:53.325Z,461.00
2022-09-18T05:22:23.363Z,461.00
2022-09-18T05:22:53.396Z,461.00
2022-09-18T05:23:23.424Z,462.00
2022-09-18T05:23:53.459Z,462.00
2022-09-18T05:24:23.510Z,461.00
2022-09-18T05:24:53.547Z,461.00
2022-09-18T05:25:23.581Z,461.00
2022-09-18T05:25:53.613Z,461.00
2022-09-18T05:26:23.646Z,461.00
2022-09-18T05:26:53.683Z,461.00
2022-09-18T05:27:26.950Z,459.00
2022-09-18T05:27:53.741Z,459.00
2022-09-18T05:28:23.777Z,459.00
2022-09-18T05:28:53.816Z,459.00
2022-09-18T05:29:23.862Z,459.00
2022-09-18T05:29:53.891Z,460.00
2022-09-18T05:30:23.922Z,459.00
2022-09-18T05:30:53.951Z,459.00
2022-09-18T05:31:24.032Z,457.00
2022-09-18T05:31:54.117Z,458.00
2022-09-18T05:32:24.072Z,458.00
2022-09-18T05:32:58.594Z,459.00
2022-09-18T05:33:24.210Z,459.00
2022-09-18T05:33:54.237Z,459.00
2022-09-18T05:34:24.294Z,458.00
2022-09-18T05:34:54.331Z,459.00
2022-09-18T05:35:24.363Z,459.00
2022-09-18T05:35:54.395Z,460.00
2022-09-18T05:36:24.434Z,463.00
2022-09-18T05:36:54.464Z,463.00
2022-09-18T05:37:24.494Z,462.00
2022-09-18T05:37:54.529Z,462.00
2022-09-18T05:38:24.556Z,460.00
2022-09-18T05:38:54.594Z,460.00
2022-09-18T05:39:24.632Z,461.00
2022-09-18T05:39:54.725Z,461.00
2022-09-18T05:40:24.822Z,463.00
2022-09-18T05:40:54.837Z,462.00
2022-09-18T05:41:24.862Z,461.00
2022-09-18T05:41:54.896Z,462.00
2022-09-18T05:42:24.928Z,462.00
2022-09-18T05:42:55.079Z,461.00
2022-09-18T05:43:25.074Z,462.00
2022-09-18T05:43:55.103Z,462.00
2022-09-18T05:44:25.137Z,462.00
2022-09-18T05:44:57.604Z,461.00
2022-09-18T05:45:25.220Z,461.00
2022-09-18T05:45:55.251Z,460.00
2022-09-18T05:46:25.327Z,461.00
2022-09-18T05:46:55.432Z,461.00
2022-09-18T05:47:25.457Z,460.00
2022-09-18T05:47:55.489Z,460.00
2022-09-18T05:48:25.522Z,459.00
2022-09-18T05:48:55.553Z,461.00
2022-09-18T05:49:25.593Z,461.00
2022-09-18T05:49:55.627Z,460.00
2022-09-18T05:50:25.660Z,460.00
2022-09-18T05:50:55.687Z,460.00
2022-09-18T05:51:25.723Z,461.00
2022-09-18T05:51:55.754Z,461.00
2022-09-18T05:52:25.784Z,461.00
2022-09-18T05:52:55.822Z,461.00
2022-09-18T05:53:25.857Z,460.00
2022-09-18T05:53:55.884Z,459.00
2022-09-18T05:54:25.917Z,459.00
2022-09-18T05:54:55.950Z,460.00
2022-09-18T05:55:25.983Z,459.00
2022-09-18T05:55:56.016Z,458.00
2022-09-18T05:56:26.044Z,457.00
2022-09-18T05:56:56.076Z,459.00
2022-09-18T05:57:26.108Z,457.00
2022-09-18T05:57:56.141Z,457.00
2022-09-18T05:58:26.293Z,456.00
2022-09-18T05:58:56.287Z,457.00
2022-09-18T05:59:26.324Z,458.00
2022-09-18T05:59:56.354Z,458.00
2022-09-18T06:00:26.386Z,457.00
2022-09-18T06:00:56.425Z,458.00
2022-09-18T06:01:26.498Z,459.00
2022-09-18T06:01:56.615Z,458.00
2022-09-18T06:02:26.654Z,459.00
2022-09-18T06:02:56.822Z,459.00
2022-09-18T06:03:26.847Z,459.00
2022-09-18T06:03:56.831Z,458.00
2022-09-18T06:04:26.829Z,458.00
2022-09-18T06:04:56.954Z,460.00
2022-09-18T06:05:26.945Z,459.00
2022-09-18T06:05:57.066Z,458.00
2022-09-18T06:06:27.179Z,459.00
2022-09-18T06:06:57.181Z,459.00
2022-09-18T06:07:27.170Z,460.00
2022-09-18T06:07:59.774Z,461.00
2022-09-18T06:08:27.285Z,461.00
2022-09-18T06:08:57.407Z,461.00
2022-09-18T06:09:27.522Z,462.00
2022-09-18T06:09:57.649Z,462.00
2022-09-18T06:10:27.651Z,460.00
2022-09-18T06:10:57.762Z,461.00
2022-09-18T06:11:27.876Z,461.00
2022-09-18T06:11:57.994Z,461.00
2022-09-18T06:12:28.113Z,462.00
2022-09-18T06:12:58.144Z,462.00
2022-09-18T06:13:28.191Z,462.00
2022-09-18T06:13:58.344Z,463.00
2022-09-18T06:14:28.333Z,464.00
2022-09-18T06:14:58.368Z,466.00